TKJ3255 LTAN-LTFJ
Flight info
| Callsign | TKJ3255 |
|---|---|
| Flight time | 1h 2m |
| Altitude | 34000 |
| Route | HISAR1B/19R HISAR UB545 OSGED UL610 ETAMP |
| Aircraft | B738/M-SDE2E3FGHIRWXY/LB1 |
Departure
| Time | 2026-05-06 15:12 |
|---|---|
| Airport | Konya Airport (LTAN) |
Arrival
| Time | 2026-05-06 16:14 |
|---|---|
| Airport | Istanbul Sabiha Gökçen International Airport (LTFJ) |
| Time | Latitude | Longitude | Altitude | Speed | Heading |
|---|---|---|---|---|---|
| 2026-05-06 14:37 | 37.98525 | 32.57565 | 3391 ft | 0 kts | 110° |
| 2026-05-06 14:59 | 37.98531 | 32.57544 | 3386 ft | 4 kts | 112° |
| 2026-05-06 15:00 | 37.98542 | 32.57513 | 3386 ft | 4 kts | 119° |
| 2026-05-06 15:00 | 37.98556 | 32.57485 | 3386 ft | 3 kts | 130° |
| 2026-05-06 15:00 | 37.98561 | 32.57478 | 3386 ft | 0 kts | 130° |
| 2026-05-06 15:04 | 37.98553 | 32.57487 | 3386 ft | 4 kts | 146° |
| 2026-05-06 15:04 | 37.98518 | 32.57485 | 3388 ft | 7 kts | 195° |
| 2026-05-06 15:04 | 37.98465 | 32.57465 | 3390 ft | 9 kts | 199° |
| 2026-05-06 15:05 | 37.98441 | 32.57395 | 3388 ft | 11 kts | 287° |
| 2026-05-06 15:05 | 37.98465 | 32.57299 | 3385 ft | 12 kts | 287° |
| 2026-05-06 15:05 | 37.98490 | 32.57189 | 3385 ft | 14 kts | 286° |
| 2026-05-06 15:05 | 37.98519 | 32.57066 | 3385 ft | 15 kts | 288° |
| 2026-05-06 15:06 | 37.98550 | 32.56932 | 3389 ft | 17 kts | 282° |
| 2026-05-06 15:06 | 37.98584 | 32.56789 | 3386 ft | 16 kts | 291° |
| 2026-05-06 15:06 | 37.98600 | 32.56656 | 3388 ft | 16 kts | 241° |
| 2026-05-06 15:06 | 37.98494 | 32.56599 | 3383 ft | 18 kts | 196° |
| 2026-05-06 15:07 | 37.98366 | 32.56551 | 3382 ft | 20 kts | 196° |
| 2026-05-06 15:07 | 37.98225 | 32.56500 | 3381 ft | 22 kts | 196° |
| 2026-05-06 15:07 | 37.98073 | 32.56442 | 3381 ft | 24 kts | 197° |
| 2026-05-06 15:07 | 37.97910 | 32.56380 | 3379 ft | 25 kts | 197° |
| 2026-05-06 15:08 | 37.97740 | 32.56315 | 3376 ft | 24 kts | 196° |
| 2026-05-06 15:08 | 37.97625 | 32.56272 | 3375 ft | 18 kts | 197° |
| 2026-05-06 15:08 | 37.97499 | 32.56224 | 3373 ft | 20 kts | 197° |
| 2026-05-06 15:08 | 37.97357 | 32.56170 | 3371 ft | 22 kts | 197° |
| 2026-05-06 15:09 | 37.97254 | 32.56130 | 3370 ft | 24 kts | 197° |
| 2026-05-06 15:09 | 37.97091 | 32.56068 | 3368 ft | 25 kts | 197° |
| 2026-05-06 15:09 | 37.96918 | 32.56004 | 3371 ft | 27 kts | 196° |
| 2026-05-06 15:09 | 37.96738 | 32.55936 | 3366 ft | 28 kts | 197° |
| 2026-05-06 15:10 | 37.96549 | 32.55873 | 3368 ft | 28 kts | 194° |
| 2026-05-06 15:10 | 37.96423 | 32.55815 | 3368 ft | 11 kts | 207° |
| 2026-05-06 15:10 | 37.96411 | 32.55734 | 3369 ft | 12 kts | 321° |
| 2026-05-06 15:10 | 37.96467 | 32.55649 | 3366 ft | 14 kts | 283° |
| 2026-05-06 15:11 | 37.96493 | 32.55517 | 3365 ft | 16 kts | 289° |
| 2026-05-06 15:11 | 37.96544 | 32.55429 | 3361 ft | 12 kts | 8° |
| 2026-05-06 15:11 | 37.96699 | 32.55489 | 3366 ft | 55 kts | 17° |
| 2026-05-06 15:11 | 37.97331 | 32.55727 | 3370 ft | 133 kts | 16° |
| 2026-05-06 15:12 | 37.98404 | 32.56084 | 3659 ft | 175 kts | 14° |
| 2026-05-06 15:12 | 37.99592 | 32.56536 | 4575 ft | 181 kts | 18° |
| 2026-05-06 15:12 | 38.00790 | 32.57110 | 5492 ft | 192 kts | 22° |
| 2026-05-06 15:12 | 38.02084 | 32.57855 | 5889 ft | 215 kts | 22° |
| 2026-05-06 15:13 | 38.03505 | 32.58597 | 6458 ft | 226 kts | 21° |
| 2026-05-06 15:13 | 38.04976 | 32.59358 | 7256 ft | 230 kts | 21° |
| 2026-05-06 15:13 | 38.06461 | 32.60137 | 8086 ft | 232 kts | 21° |
| 2026-05-06 15:13 | 38.07958 | 32.60929 | 8884 ft | 235 kts | 21° |
| 2026-05-06 15:14 | 38.09477 | 32.61736 | 9670 ft | 238 kts | 21° |
| 2026-05-06 15:14 | 38.11014 | 32.62556 | 10445 ft | 241 kts | 21° |
| 2026-05-06 15:14 | 38.12585 | 32.63340 | 11189 ft | 244 kts | 11° |
| 2026-05-06 15:14 | 38.14253 | 32.63232 | 11889 ft | 242 kts | 335° |
| 2026-05-06 15:15 | 38.15582 | 32.61983 | 12672 ft | 239 kts | 306° |
| 2026-05-06 15:15 | 38.16244 | 32.60071 | 13406 ft | 240 kts | 277° |
| 2026-05-06 15:15 | 38.16016 | 32.57976 | 14132 ft | 243 kts | 248° |
| 2026-05-06 15:15 | 38.15059 | 32.56123 | 14657 ft | 258 kts | 222° |
| 2026-05-06 15:16 | 38.13439 | 32.55151 | 15392 ft | 264 kts | 190° |
| 2026-05-06 15:16 | 38.11587 | 32.55202 | 16082 ft | 269 kts | 177° |
| 2026-05-06 15:16 | 38.09704 | 32.55445 | 16676 ft | 275 kts | 177° |
| 2026-05-06 15:16 | 38.07774 | 32.55669 | 17271 ft | 280 kts | 178° |
| 2026-05-06 15:17 | 38.05830 | 32.55874 | 17905 ft | 282 kts | 179° |
| 2026-05-06 15:17 | 38.03863 | 32.55945 | 18482 ft | 284 kts | 194° |
| 2026-05-06 15:17 | 38.02090 | 32.54982 | 19036 ft | 275 kts | 224° |
| 2026-05-06 15:17 | 38.00910 | 32.53132 | 19590 ft | 272 kts | 249° |
| 2026-05-06 15:18 | 38.00423 | 32.50770 | 19742 ft | 286 kts | 271° |
| 2026-05-06 15:18 | 38.00587 | 32.48186 | 19954 ft | 303 kts | 279° |
| 2026-05-06 15:18 | 38.00921 | 32.45455 | 20075 ft | 324 kts | 281° |
| 2026-05-06 15:18 | 38.01298 | 32.42556 | 20219 ft | 343 kts | 281° |
| 2026-05-06 15:19 | 38.01691 | 32.39486 | 20349 ft | 362 kts | 280° |
| 2026-05-06 15:19 | 38.02094 | 32.36258 | 20471 ft | 379 kts | 280° |
| 2026-05-06 15:19 | 38.02499 | 32.32922 | 20623 ft | 394 kts | 279° |
| 2026-05-06 15:19 | 38.02910 | 32.29471 | 21109 ft | 398 kts | 279° |
| 2026-05-06 15:20 | 38.03320 | 32.25989 | 21681 ft | 399 kts | 279° |
| 2026-05-06 15:20 | 38.03730 | 32.22494 | 22191 ft | 402 kts | 279° |
| 2026-05-06 15:20 | 38.04143 | 32.18966 | 22638 ft | 407 kts | 279° |
| 2026-05-06 15:20 | 38.04558 | 32.15412 | 23146 ft | 408 kts | 279° |
| 2026-05-06 15:21 | 38.04975 | 32.11845 | 23645 ft | 410 kts | 279° |
| 2026-05-06 15:21 | 38.05397 | 32.08239 | 24077 ft | 414 kts | 279° |
| 2026-05-06 15:21 | 38.05821 | 32.04618 | 24477 ft | 417 kts | 279° |
| 2026-05-06 15:21 | 38.06245 | 32.00977 | 24932 ft | 419 kts | 279° |
| 2026-05-06 15:22 | 38.06671 | 31.97306 | 25382 ft | 420 kts | 279° |
| 2026-05-06 15:22 | 38.07098 | 31.93632 | 25816 ft | 422 kts | 279° |
| 2026-05-06 15:22 | 38.07525 | 31.89944 | 26190 ft | 423 kts | 279° |
| 2026-05-06 15:22 | 38.07952 | 31.86227 | 26545 ft | 426 kts | 279° |
| 2026-05-06 15:23 | 38.08381 | 31.82498 | 26934 ft | 428 kts | 279° |
| 2026-05-06 15:23 | 38.08811 | 31.78749 | 27299 ft | 430 kts | 279° |
| 2026-05-06 15:23 | 38.09240 | 31.74991 | 27663 ft | 431 kts | 279° |
| 2026-05-06 15:23 | 38.09669 | 31.71216 | 28014 ft | 433 kts | 279° |
| 2026-05-06 15:24 | 38.10096 | 31.67442 | 28342 ft | 434 kts | 279° |
| 2026-05-06 15:24 | 38.10521 | 31.63689 | 28650 ft | 436 kts | 279° |
| 2026-05-06 15:24 | 38.10955 | 31.59836 | 29066 ft | 434 kts | 279° |
| 2026-05-06 15:24 | 38.11486 | 31.56131 | 29545 ft | 430 kts | 288° |
| 2026-05-06 15:25 | 38.12701 | 31.52688 | 29990 ft | 427 kts | 302° |
| 2026-05-06 15:25 | 38.14515 | 31.49716 | 30542 ft | 423 kts | 310° |
| 2026-05-06 15:25 | 38.16477 | 31.46951 | 30973 ft | 422 kts | 311° |
| 2026-05-06 15:25 | 38.18469 | 31.44201 | 31239 ft | 424 kts | 311° |
| 2026-05-06 15:26 | 38.20473 | 31.41432 | 31507 ft | 426 kts | 311° |
| 2026-05-06 15:26 | 38.22470 | 31.38649 | 31844 ft | 426 kts | 311° |
| 2026-05-06 15:26 | 38.24451 | 31.35861 | 32217 ft | 424 kts | 311° |
| 2026-05-06 15:26 | 38.26426 | 31.33063 | 32493 ft | 425 kts | 311° |
| 2026-05-06 15:27 | 38.28399 | 31.30256 | 32769 ft | 426 kts | 311° |
| 2026-05-06 15:27 | 38.30370 | 31.27442 | 33087 ft | 426 kts | 311° |
| 2026-05-06 15:27 | 38.32337 | 31.24633 | 33463 ft | 424 kts | 311° |
| 2026-05-06 15:27 | 38.34296 | 31.21833 | 33747 ft | 424 kts | 311° |
| 2026-05-06 15:28 | 38.36262 | 31.19024 | 33997 ft | 425 kts | 311° |
| 2026-05-06 15:28 | 38.38230 | 31.16207 | 34112 ft | 428 kts | 311° |
| 2026-05-06 15:28 | 38.40210 | 31.13372 | 34092 ft | 429 kts | 311° |
| 2026-05-06 15:29 | 38.44157 | 31.07711 | 34106 ft | 423 kts | 311° |
| 2026-05-06 15:29 | 38.48035 | 31.02135 | 34103 ft | 422 kts | 310° |
| 2026-05-06 15:30 | 38.51671 | 30.96204 | 34104 ft | 421 kts | 307° |
| 2026-05-06 15:30 | 38.55142 | 30.90229 | 34093 ft | 421 kts | 307° |
| 2026-05-06 15:31 | 38.58645 | 30.84228 | 34104 ft | 421 kts | 307° |
| 2026-05-06 15:31 | 38.62163 | 30.78242 | 34102 ft | 421 kts | 307° |
| 2026-05-06 15:32 | 38.67447 | 30.69249 | 34086 ft | 422 kts | 307° |
| 2026-05-06 15:32 | 38.70972 | 30.63232 | 34097 ft | 422 kts | 307° |
| 2026-05-06 15:33 | 38.73899 | 30.56720 | 34152 ft | 421 kts | 296° |
| 2026-05-06 15:33 | 38.76389 | 30.49913 | 34116 ft | 423 kts | 296° |
| 2026-05-06 15:34 | 38.78912 | 30.43070 | 34089 ft | 425 kts | 296° |
| 2026-05-06 15:34 | 38.81453 | 30.36233 | 34093 ft | 425 kts | 297° |
| 2026-05-06 15:35 | 38.83997 | 30.29381 | 34098 ft | 426 kts | 296° |
| 2026-05-06 15:35 | 38.86527 | 30.22550 | 34090 ft | 426 kts | 296° |
| 2026-05-06 15:36 | 38.89086 | 30.15686 | 34080 ft | 426 kts | 300° |
| 2026-05-06 15:36 | 38.90800 | 30.12595 | 34091 ft | 425 kts | 313° |
| 2026-05-06 15:36 | 38.92959 | 30.10024 | 34090 ft | 425 kts | 321° |
| 2026-05-06 15:37 | 38.95456 | 30.07983 | 34104 ft | 426 kts | 333° |
| 2026-05-06 15:37 | 38.98174 | 30.06470 | 34115 ft | 426 kts | 336° |
| 2026-05-06 15:37 | 39.03649 | 30.03503 | 34107 ft | 427 kts | 335° |
| 2026-05-06 15:38 | 39.09101 | 30.00460 | 34104 ft | 427 kts | 335° |
| 2026-05-06 15:38 | 39.14559 | 29.97407 | 34100 ft | 427 kts | 335° |
| 2026-05-06 15:39 | 39.20079 | 29.94557 | 34091 ft | 427 kts | 339° |
| 2026-05-06 15:39 | 39.25683 | 29.91996 | 34072 ft | 427 kts | 339° |
| 2026-05-06 15:40 | 39.31277 | 29.89439 | 34086 ft | 426 kts | 339° |
| 2026-05-06 15:40 | 39.36849 | 29.86843 | 34079 ft | 426 kts | 339° |
| 2026-05-06 15:41 | 39.42423 | 29.84224 | 34096 ft | 426 kts | 339° |
| 2026-05-06 15:41 | 39.48003 | 29.81585 | 34071 ft | 427 kts | 339° |
| 2026-05-06 15:42 | 39.53546 | 29.78967 | 34072 ft | 426 kts | 339° |
| 2026-05-06 15:42 | 39.59117 | 29.76331 | 34075 ft | 427 kts | 339° |
| 2026-05-06 15:43 | 39.64695 | 29.73685 | 34074 ft | 428 kts | 339° |
| 2026-05-06 15:43 | 39.67505 | 29.72354 | 33868 ft | 432 kts | 339° |
| 2026-05-06 15:43 | 39.70338 | 29.71009 | 33534 ft | 433 kts | 339° |
| 2026-05-06 15:44 | 39.73149 | 29.69672 | 33242 ft | 428 kts | 339° |
| 2026-05-06 15:44 | 39.75935 | 29.68346 | 32918 ft | 425 kts | 339° |
| 2026-05-06 15:44 | 39.78718 | 29.67019 | 32417 ft | 426 kts | 339° |
| 2026-05-06 15:44 | 39.81500 | 29.65691 | 31913 ft | 425 kts | 339° |
| 2026-05-06 15:45 | 39.84260 | 29.64373 | 31416 ft | 419 kts | 339° |
| 2026-05-06 15:45 | 39.86975 | 29.63076 | 30916 ft | 413 kts | 339° |
| 2026-05-06 15:45 | 39.89659 | 29.61793 | 30423 ft | 408 kts | 339° |
| 2026-05-06 15:45 | 39.92304 | 29.60528 | 29919 ft | 403 kts | 339° |
| 2026-05-06 15:46 | 39.94925 | 29.59273 | 29432 ft | 400 kts | 339° |
| 2026-05-06 15:46 | 39.97525 | 29.58027 | 28965 ft | 396 kts | 339° |
| 2026-05-06 15:46 | 40.00097 | 29.56794 | 28483 ft | 392 kts | 339° |
| 2026-05-06 15:46 | 40.02648 | 29.55570 | 28002 ft | 388 kts | 339° |
| 2026-05-06 15:47 | 40.05171 | 29.54357 | 27530 ft | 385 kts | 339° |
| 2026-05-06 15:47 | 40.07679 | 29.53171 | 27049 ft | 383 kts | 342° |
| 2026-05-06 15:47 | 40.10319 | 29.52781 | 26420 ft | 387 kts | 6° |
| 2026-05-06 15:47 | 40.12910 | 29.53663 | 26108 ft | 384 kts | 19° |
| 2026-05-06 15:48 | 40.15234 | 29.55304 | 25588 ft | 386 kts | 31° |
| 2026-05-06 15:48 | 40.17439 | 29.57271 | 25172 ft | 382 kts | 32° |
| 2026-05-06 15:48 | 40.19615 | 29.59262 | 24684 ft | 381 kts | 32° |
| 2026-05-06 15:48 | 40.21777 | 29.61249 | 24210 ft | 379 kts | 32° |
| 2026-05-06 15:49 | 40.23929 | 29.63218 | 23744 ft | 377 kts | 32° |
| 2026-05-06 15:49 | 40.26077 | 29.65172 | 23254 ft | 375 kts | 32° |
| 2026-05-06 15:49 | 40.28216 | 29.67109 | 22788 ft | 373 kts | 32° |
| 2026-05-06 15:49 | 40.30347 | 29.69033 | 22315 ft | 371 kts | 32° |
| 2026-05-06 15:50 | 40.32465 | 29.70944 | 21833 ft | 369 kts | 32° |
| 2026-05-06 15:50 | 40.34569 | 29.72840 | 21368 ft | 366 kts | 32° |
| 2026-05-06 15:50 | 40.36662 | 29.74727 | 20914 ft | 364 kts | 32° |
| 2026-05-06 15:50 | 40.38742 | 29.76603 | 20464 ft | 362 kts | 32° |
| 2026-05-06 15:51 | 40.40801 | 29.78461 | 20021 ft | 360 kts | 32° |
| 2026-05-06 15:51 | 40.42859 | 29.80320 | 19563 ft | 358 kts | 33° |
| 2026-05-06 15:51 | 40.44901 | 29.82166 | 19115 ft | 356 kts | 33° |
| 2026-05-06 15:51 | 40.46936 | 29.84008 | 18663 ft | 354 kts | 33° |
| 2026-05-06 15:52 | 40.48949 | 29.85832 | 18218 ft | 349 kts | 33° |
| 2026-05-06 15:52 | 40.50923 | 29.87623 | 17759 ft | 341 kts | 33° |
| 2026-05-06 15:52 | 40.52857 | 29.89378 | 17303 ft | 335 kts | 33° |
| 2026-05-06 15:52 | 40.54755 | 29.91099 | 16851 ft | 329 kts | 33° |
| 2026-05-06 15:53 | 40.56625 | 29.92795 | 16398 ft | 324 kts | 33° |
| 2026-05-06 15:53 | 40.58466 | 29.94468 | 15944 ft | 320 kts | 33° |
| 2026-05-06 15:53 | 40.60286 | 29.96124 | 15499 ft | 316 kts | 33° |
| 2026-05-06 15:53 | 40.62091 | 29.97766 | 15082 ft | 316 kts | 33° |
| 2026-05-06 15:54 | 40.63903 | 29.99415 | 14661 ft | 317 kts | 33° |
| 2026-05-06 15:54 | 40.65710 | 30.01063 | 14233 ft | 316 kts | 33° |
| 2026-05-06 15:54 | 40.67481 | 30.02678 | 13821 ft | 317 kts | 33° |
| 2026-05-06 15:54 | 40.69332 | 30.04365 | 13388 ft | 317 kts | 33° |
| 2026-05-06 15:55 | 40.71128 | 30.06005 | 12955 ft | 311 kts | 33° |
| 2026-05-06 15:55 | 40.72896 | 30.07620 | 12520 ft | 306 kts | 33° |
| 2026-05-06 15:55 | 40.74631 | 30.09207 | 12091 ft | 301 kts | 33° |
| 2026-05-06 15:55 | 40.76341 | 30.10772 | 11663 ft | 297 kts | 33° |
| 2026-05-06 15:56 | 40.77460 | 30.11797 | 11379 ft | 294 kts | 33° |
| 2026-05-06 15:56 | 40.79681 | 30.13830 | 10854 ft | 294 kts | 34° |
| 2026-05-06 15:56 | 40.81367 | 30.15373 | 10446 ft | 296 kts | 34° |
| 2026-05-06 15:56 | 40.83056 | 30.16919 | 10069 ft | 296 kts | 32° |
| 2026-05-06 15:57 | 40.84928 | 30.17907 | 9789 ft | 284 kts | 6° |
| 2026-05-06 15:57 | 40.86849 | 30.18118 | 9818 ft | 271 kts | 3° |
| 2026-05-06 15:57 | 40.88104 | 30.18228 | 9794 ft | 266 kts | 3° |
| 2026-05-06 15:57 | 40.90536 | 30.18446 | 9790 ft | 264 kts | 3° |
| 2026-05-06 15:58 | 40.91776 | 30.18562 | 9802 ft | 266 kts | 3° |
| 2026-05-06 15:58 | 40.93635 | 30.18738 | 9804 ft | 270 kts | 3° |
| 2026-05-06 15:58 | 40.95516 | 30.18917 | 9801 ft | 272 kts | 3° |
| 2026-05-06 15:58 | 40.97375 | 30.19097 | 9805 ft | 273 kts | 3° |
| 2026-05-06 15:59 | 40.99285 | 30.19282 | 9800 ft | 273 kts | 4° |
| 2026-05-06 15:59 | 41.01176 | 30.19464 | 9808 ft | 271 kts | 4° |
| 2026-05-06 15:59 | 41.03055 | 30.19647 | 9801 ft | 270 kts | 4° |
| 2026-05-06 15:59 | 41.04934 | 30.19829 | 9652 ft | 271 kts | 4° |
| 2026-05-06 16:00 | 41.06817 | 30.19993 | 9524 ft | 271 kts | 360° |
| 2026-05-06 16:00 | 41.08684 | 30.19669 | 9331 ft | 270 kts | 346° |
| 2026-05-06 16:00 | 41.10491 | 30.19073 | 9200 ft | 267 kts | 345° |
| 2026-05-06 16:00 | 41.12294 | 30.18474 | 8999 ft | 266 kts | 345° |
| 2026-05-06 16:01 | 41.14091 | 30.17905 | 8832 ft | 265 kts | 346° |
| 2026-05-06 16:01 | 41.15881 | 30.17354 | 8655 ft | 264 kts | 346° |
| 2026-05-06 16:01 | 41.17668 | 30.16806 | 8469 ft | 263 kts | 345° |
| 2026-05-06 16:01 | 41.19320 | 30.15785 | 8174 ft | 265 kts | 318° |
| 2026-05-06 16:02 | 41.20446 | 30.13893 | 8032 ft | 259 kts | 303° |
| 2026-05-06 16:02 | 41.21426 | 30.11901 | 7828 ft | 258 kts | 291° |
| 2026-05-06 16:02 | 41.21677 | 30.09567 | 7623 ft | 256 kts | 263° |
| 2026-05-06 16:02 | 41.21148 | 30.07342 | 7426 ft | 252 kts | 241° |
| 2026-05-06 16:03 | 41.20282 | 30.05357 | 7268 ft | 246 kts | 239° |
| 2026-05-06 16:03 | 41.19401 | 30.03429 | 7084 ft | 242 kts | 238° |
| 2026-05-06 16:03 | 41.18530 | 30.01524 | 6909 ft | 240 kts | 238° |
| 2026-05-06 16:03 | 41.17673 | 29.99648 | 6717 ft | 241 kts | 238° |
| 2026-05-06 16:04 | 41.16807 | 29.97749 | 6549 ft | 240 kts | 239° |
| 2026-05-06 16:04 | 41.15955 | 29.95850 | 6383 ft | 239 kts | 240° |
| 2026-05-06 16:04 | 41.15129 | 29.93953 | 6212 ft | 237 kts | 239° |
| 2026-05-06 16:04 | 41.14275 | 29.92097 | 6058 ft | 234 kts | 238° |
| 2026-05-06 16:05 | 41.13439 | 29.90276 | 5899 ft | 229 kts | 239° |
| 2026-05-06 16:05 | 41.12625 | 29.88496 | 5756 ft | 224 kts | 239° |
| 2026-05-06 16:05 | 41.11820 | 29.86728 | 5602 ft | 223 kts | 239° |
| 2026-05-06 16:05 | 41.11022 | 29.84963 | 5438 ft | 224 kts | 239° |
| 2026-05-06 16:06 | 41.10216 | 29.83186 | 5291 ft | 224 kts | 239° |
| 2026-05-06 16:06 | 41.09413 | 29.81416 | 5154 ft | 224 kts | 239° |
| 2026-05-06 16:06 | 41.08593 | 29.79664 | 5003 ft | 225 kts | 239° |
| 2026-05-06 16:06 | 41.07789 | 29.77885 | 4842 ft | 225 kts | 239° |
| 2026-05-06 16:07 | 41.06987 | 29.76097 | 4710 ft | 225 kts | 239° |
| 2026-05-06 16:07 | 41.06183 | 29.74316 | 4602 ft | 224 kts | 239° |
| 2026-05-06 16:07 | 41.05388 | 29.72559 | 4463 ft | 219 kts | 239° |
| 2026-05-06 16:07 | 41.04614 | 29.70849 | 4311 ft | 214 kts | 239° |
| 2026-05-06 16:08 | 41.03851 | 29.69175 | 4183 ft | 211 kts | 239° |
| 2026-05-06 16:08 | 41.03106 | 29.67526 | 4086 ft | 211 kts | 239° |
| 2026-05-06 16:08 | 41.02352 | 29.65866 | 4012 ft | 210 kts | 239° |
| 2026-05-06 16:08 | 41.01600 | 29.64208 | 3927 ft | 210 kts | 239° |
| 2026-05-06 16:09 | 41.00851 | 29.62558 | 3846 ft | 208 kts | 239° |
| 2026-05-06 16:09 | 41.00113 | 29.60942 | 3787 ft | 205 kts | 239° |
| 2026-05-06 16:09 | 40.99371 | 29.59321 | 3719 ft | 205 kts | 239° |
| 2026-05-06 16:09 | 40.98635 | 29.57707 | 3655 ft | 207 kts | 239° |
| 2026-05-06 16:10 | 40.97908 | 29.56036 | 3532 ft | 210 kts | 243° |
| 2026-05-06 16:10 | 40.97275 | 29.54313 | 3508 ft | 204 kts | 245° |
| 2026-05-06 16:10 | 40.96700 | 29.52649 | 3484 ft | 192 kts | 245° |
| 2026-05-06 16:10 | 40.96152 | 29.51115 | 3475 ft | 175 kts | 244° |
| 2026-05-06 16:11 | 40.95634 | 29.49701 | 3285 ft | 167 kts | 244° |
| 2026-05-06 16:11 | 40.95144 | 29.48366 | 3087 ft | 154 kts | 244° |
| 2026-05-06 16:11 | 40.94689 | 29.47132 | 2829 ft | 147 kts | 244° |
| 2026-05-06 16:11 | 40.94249 | 29.45937 | 2605 ft | 144 kts | 245° |
| 2026-05-06 16:12 | 40.93801 | 29.44719 | 2371 ft | 150 kts | 245° |
| 2026-05-06 16:12 | 40.93342 | 29.43470 | 2143 ft | 151 kts | 245° |
| 2026-05-06 16:12 | 40.92879 | 29.42211 | 1887 ft | 154 kts | 245° |
| 2026-05-06 16:12 | 40.92434 | 29.41005 | 1686 ft | 155 kts | 245° |
| 2026-05-06 16:13 | 40.91949 | 29.39681 | 1436 ft | 154 kts | 245° |
| 2026-05-06 16:13 | 40.91483 | 29.38416 | 1191 ft | 151 kts | 245° |
| 2026-05-06 16:13 | 40.91026 | 29.37175 | 948 ft | 149 kts | 244° |
| 2026-05-06 16:13 | 40.90575 | 29.35938 | 726 ft | 151 kts | 245° |
| 2026-05-06 16:14 | 40.90116 | 29.34693 | 488 ft | 150 kts | 244° |
| 2026-05-06 16:14 | 40.89669 | 29.33475 | 315 ft | 143 kts | 244° |
| 2026-05-06 16:14 | 40.89276 | 29.32407 | 299 ft | 111 kts | 244° |
| 2026-05-06 16:14 | 40.89048 | 29.31800 | 305 ft | 42 kts | 243° |
| 2026-05-06 16:15 | 40.88969 | 29.31552 | 306 ft | 23 kts | 260° |
| 2026-05-06 16:15 | 40.88962 | 29.31342 | 305 ft | 23 kts | 270° |
| 2026-05-06 16:15 | 40.88998 | 29.31189 | 303 ft | 15 kts | 343° |
| 2026-05-06 16:15 | 40.89050 | 29.31287 | 305 ft | 14 kts | 61° |
| 2026-05-06 16:16 | 40.89109 | 29.31391 | 305 ft | 14 kts | 49° |
| 2026-05-06 16:16 | 40.89191 | 29.31431 | 305 ft | 13 kts | 0° |
| 2026-05-06 16:16 | 40.89277 | 29.31466 | 306 ft | 13 kts | 9° |
| 2026-05-06 16:16 | 40.89336 | 29.31401 | 307 ft | 11 kts | 264° |
| 2026-05-06 16:17 | 40.89303 | 29.31317 | 305 ft | 9 kts | 244° |
| 2026-05-06 16:17 | 40.89303 | 29.31315 | 306 ft | 0 kts | 244° |